WEATHER/FLIGHT PLANNING

Hattiesburg Radar

 

 

 

 

Weather Links

Flight Planning Links

 

METAR

2017/04/30 08:53 KHBG 300853Z AUTO 16013KT 10SM SCT020 24/21 A2984 RMK AO2 PK WND 14026/0804 SLP101 T02440211 56007

TAF

2017/04/30 06:03 TAF KHBG 300600Z 3006/0106 16012G20KT P6SM BKN025 OVC035 FM301800 17015G30KT 5SM TSRA SCT015 BKN025CB OVC050 FM010000 20012G20KT P6SM SHRA BKN025 OVC040 FM010300 19008KT P6SM BKN100